Time;durP1;ratioP1;P1;durP2;ratioP2;P2;SDS_P1;SDS_P2;PMS_P1;PMS_P2;Temp;Humidity;BMP_temperature;BMP_pressure;BME280_temperature;BME280_humidity;BME280_pressure;Samples;Min_cycle;Max_cycle;Signal;HPM_P1;HPM_P2
2022/07/21 00:00:24;;;;;;;9.80;7.60;;;25.70;1.00;;;;;;6283663;28;20731;-54
2022/07/21 00:03:27;;;;;;;9.20;8.50;;;25.70;1.00;;;;;;6275152;28;20306;-53
2022/07/21 00:06:29;;;;;;;7.67;7.10;;;25.60;1.00;;;;;;6306335;28;20236;-54
2022/07/21 00:09:35;;;;;;;8.30;7.70;;;25.60;1.00;;;;;;6282201;28;20563;-53
2022/07/21 00:12:39;;;;;;;8.10;7.50;;;25.50;1.00;;;;;;6260674;28;20288;-52
2022/07/21 00:15:42;;;;;;;8.37;7.57;;;25.50;1.00;;;;;;6257084;28;20291;-53
2022/07/21 00:18:45;;;;;;;8.60;7.90;;;25.40;1.00;;;;;;6259356;28;20246;-53
2022/07/21 00:21:48;;;;;;;8.23;7.63;;;25.40;1.00;;;;;;6259685;28;20722;-53
2022/07/21 00:24:51;;;;;;;10.70;8.70;;;25.40;1.00;;;;;;6273763;28;20724;-53
2022/07/21 00:27:55;;;;;;;8.47;7.80;;;25.40;1.00;;;;;;6283106;28;20714;-53
2022/07/21 00:30:58;;;;;;;8.87;8.17;;;25.40;1.00;;;;;;6280234;28;20595;-54
2022/07/21 00:34:01;;;;;;;11.50;8.33;;;25.30;1.00;;;;;;6292789;28;20232;-53
2022/07/21 00:37:04;;;;;;;8.63;8.00;;;25.30;1.00;;;;;;6276965;28;20324;-53
2022/07/21 00:40:09;;;;;;;9.37;8.57;;;25.30;1.00;;;;;;6281835;28;20234;-55
2022/07/21 00:43:13;;;;;;;11.43;8.97;;;25.30;1.00;;;;;;6256761;28;20654;-53
2022/07/21 00:46:16;;;;;;;8.10;7.50;;;25.30;1.00;;;;;;6255942;28;20260;-53
2022/07/21 00:49:20;;;;;;;11.10;8.23;;;25.30;1.00;;;;;;6256552;28;20245;-53
2022/07/21 00:52:23;;;;;;;8.57;7.67;;;25.20;1.00;;;;;;6263254;28;20287;-53
2022/07/21 00:55:26;;;;;;;8.70;7.87;;;25.20;1.00;;;;;;6268605;28;20241;-53
2022/07/21 00:58:31;;;;;;;9.23;8.53;;;25.20;1.00;;;;;;6280872;28;20369;-52
2022/07/21 01:01:34;;;;;;;9.67;8.67;;;25.20;1.00;;;;;;6277264;28;20741;-53
2022/07/21 01:04:37;;;;;;;9.00;8.30;;;25.20;1.00;;;;;;6280088;28;20452;-53
2022/07/21 01:07:40;;;;;;;8.07;7.57;;;25.20;1.00;;;;;;6250549;28;20596;-48
2022/07/21 01:10:43;;;;;;;8.40;7.80;;;25.10;1.00;;;;;;6281918;28;20377;-53
2022/07/21 01:13:48;;;;;;;8.87;8.07;;;25.10;1.00;;;;;;6278755;28;20313;-53
2022/07/21 01:16:51;;;;;;;10.93;8.50;;;25.10;1.00;;;;;;6270284;28;20234;-53
2022/07/21 01:19:54;;;;;;;8.97;8.10;;;25.00;1.00;;;;;;6256308;28;20234;-52
2022/07/21 01:22:59;;;;;;;10.23;8.30;;;25.00;1.00;;;;;;6267043;28;20229;-52
2022/07/21 01:26:02;;;;;;;9.13;8.33;;;25.00;1.00;;;;;;6276281;28;20245;-52
2022/07/21 01:29:04;;;;;;;8.37;7.77;;;25.00;1.00;;;;;;6277626;28;20316;-53
2022/07/21 01:32:07;;;;;;;9.10;8.20;;;24.90;1.00;;;;;;6282105;28;20314;-53
2022/07/21 01:35:12;;;;;;;8.73;7.93;;;25.00;1.00;;;;;;6263671;28;20659;-53
2022/07/21 01:41:33;;;;;;;12.43;8.80;;;24.90;1.00;;;;;;6285192;28;20348;-53
2022/07/21 01:44:36;;;;;;;8.90;8.13;;;24.90;1.00;;;;;;6257075;28;20541;-53
2022/07/21 01:47:40;;;;;;;10.17;8.87;;;24.80;1.00;;;;;;6263772;28;20903;-53
2022/07/21 01:50:43;;;;;;;9.27;8.40;;;24.90;1.00;;;;;;6276718;28;20237;-53
2022/07/21 01:53:47;;;;;;;8.90;8.03;;;24.80;1.00;;;;;;6278329;28;20578;-53
2022/07/21 01:56:50;;;;;;;8.53;7.87;;;24.90;1.00;;;;;;6279620;28;20874;-52
2022/07/21 01:59:53;;;;;;;10.00;8.60;;;24.80;1.00;;;;;;6262129;28;20458;-53
2022/07/21 02:02:56;;;;;;;8.73;8.03;;;24.70;1.00;;;;;;6268811;28;20611;-53
2022/07/21 02:06:04;;;;;;;9.43;8.43;;;24.70;1.00;;;;;;6285968;28;20399;-52
2022/07/21 02:09:08;;;;;;;14.83;8.20;;;24.70;1.00;;;;;;6284947;28;20245;-53
2022/07/21 02:12:11;;;;;;;9.40;8.63;;;24.60;1.00;;;;;;6285974;28;20240;-52
2022/07/21 02:15:14;;;;;;;11.60;8.57;;;24.60;1.00;;;;;;6252967;28;20245;-53
2022/07/21 02:18:17;;;;;;;10.73;8.30;;;24.50;1.00;;;;;;6260770;28;20249;-52
2022/07/21 02:21:21;;;;;;;8.67;8.07;;;24.50;1.00;;;;;;6261614;28;20694;-52
2022/07/21 02:24:25;;;;;;;9.90;9.00;;;24.40;1.00;;;;;;6281451;28;20448;-53
2022/07/21 02:27:28;;;;;;;9.43;8.57;;;24.40;1.00;;;;;;6285197;28;20237;-52
2022/07/21 02:30:31;;;;;;;11.53;8.60;;;24.30;1.00;;;;;;6275254;28;20249;-53
2022/07/21 02:33:34;;;;;;;9.70;8.47;;;24.30;1.00;;;;;;6270973;28;20248;-52
2022/07/21 02:36:37;;;;;;;9.00;8.10;;;24.20;1.00;;;;;;6307607;28;20258;-51
2022/07/21 02:39:41;;;;;;;8.67;7.97;;;24.20;1.00;;;;;;6309077;28;20416;-53
2022/07/21 02:42:44;;;;;;;9.03;8.40;;;24.20;1.00;;;;;;6271279;28;20350;-53
2022/07/21 02:45:47;;;;;;;8.77;7.90;;;24.10;1.00;;;;;;6257196;28;20294;-53
2022/07/21 02:48:50;;;;;;;9.90;8.93;;;24.10;1.00;;;;;;6255430;28;22513;-52
2022/07/21 02:51:54;;;;;;;9.07;8.20;;;24.10;1.00;;;;;;6276493;28;20260;-52
2022/07/21 02:54:58;;;;;;;8.80;8.23;;;24.10;1.00;;;;;;6286272;28;20732;-53
2022/07/21 02:58:08;;;;;;;9.10;8.40;;;24.00;1.00;;;;;;6283187;28;20237;-52
2022/07/21 03:01:11;;;;;;;9.77;8.77;;;24.00;1.00;;;;;;6258559;28;20306;-52
2022/07/21 03:04:14;;;;;;;9.13;8.30;;;24.00;1.00;;;;;;6271465;28;20252;-52
2022/07/21 03:07:17;;;;;;;9.53;7.97;;;24.00;1.00;;;;;;6298681;28;20369;-52
2022/07/21 03:10:22;;;;;;;8.53;7.73;;;24.00;1.00;;;;;;6309110;28;20316;-52
2022/07/21 03:13:25;;;;;;;8.80;7.90;;;24.00;1.00;;;;;;6285313;28;20657;-52
2022/07/21 03:16:28;;;;;;;8.33;7.63;;;24.00;1.00;;;;;;6281751;28;20241;-53
2022/07/21 03:19:31;;;;;;;9.83;8.07;;;24.00;1.00;;;;;;6283920;28;20245;-57
2022/07/21 03:22:34;;;;;;;10.20;7.63;;;24.00;1.00;;;;;;6279600;28;20313;-52
2022/07/21 03:25:39;;;;;;;7.93;7.30;;;24.10;1.00;;;;;;6277466;28;20238;-52
2022/07/21 03:28:44;;;;;;;7.50;7.00;;;24.00;1.00;;;;;;6281154;28;20746;-51
2022/07/21 03:31:47;;;;;;;8.13;7.27;;;24.00;1.00;;;;;;6269681;28;20583;-52
2022/07/21 03:34:50;;;;;;;8.17;7.50;;;24.00;1.00;;;;;;6283372;28;20280;-53
2022/07/21 03:37:54;;;;;;;8.83;7.97;;;24.00;1.00;;;;;;6277889;28;20240;-52
2022/07/21 03:40:58;;;;;;;8.17;7.47;;;24.00;1.00;;;;;;6280724;28;20489;-53
2022/07/21 03:44:01;;;;;;;9.33;7.90;;;23.90;1.00;;;;;;6278790;28;20661;-52
2022/07/21 03:47:05;;;;;;;10.13;7.53;;;24.00;1.00;;;;;;6276417;28;20324;-52
2022/07/21 03:50:08;;;;;;;7.67;6.97;;;23.90;1.00;;;;;;6238742;28;20564;-52
2022/07/21 03:53:11;;;;;;;9.17;7.30;;;24.00;1.00;;;;;;6289404;28;20819;-52
2022/07/21 03:56:15;;;;;;;8.40;7.57;;;24.00;1.00;;;;;;6290623;28;20237;-52
2022/07/21 03:59:18;;;;;;;10.07;7.10;;;24.00;1.00;;;;;;6280047;28;20808;-51
2022/07/21 04:02:21;;;;;;;8.30;7.10;;;24.10;1.00;;;;;;6275005;28;20430;-52
2022/07/21 04:05:25;;;;;;;8.73;6.70;;;24.10;1.00;;;;;;6286187;28;20812;-53
2022/07/21 04:08:28;;;;;;;9.07;6.60;;;24.20;1.00;;;;;;6275323;28;20529;-51
2022/07/21 04:11:32;;;;;;;9.10;6.90;;;24.20;1.00;;;;;;6286428;28;20627;-52
2022/07/21 04:14:35;;;;;;;7.57;6.90;;;24.20;1.00;;;;;;6278577;28;20715;-52
2022/07/21 04:17:39;;;;;;;7.67;6.47;;;24.30;1.00;;;;;;6278609;28;20311;-55
2022/07/21 04:20:42;;;;;;;7.13;6.53;;;24.30;1.00;;;;;;6290931;28;20263;-52
2022/07/21 04:23:45;;;;;;;8.07;7.17;;;24.30;1.00;;;;;;6285216;28;20237;-52
2022/07/21 04:26:49;;;;;;;11.33;7.40;;;24.30;1.00;;;;;;6280593;28;20230;-52
2022/07/21 04:29:52;;;;;;;7.77;7.10;;;24.40;1.00;;;;;;6278994;28;20324;-52
2022/07/21 04:32:55;;;;;;;8.87;7.40;;;24.40;1.00;;;;;;6281268;28;20592;-52
2022/07/21 04:35:58;;;;;;;12.03;7.90;;;24.30;1.00;;;;;;6282734;28;20320;-51
2022/07/21 04:39:01;;;;;;;10.53;7.53;;;24.30;1.00;;;;;;6276035;28;20265;-52
2022/07/21 04:42:05;;;;;;;8.70;7.80;;;24.30;1.00;;;;;;6272234;28;20253;-52
2022/07/21 04:45:11;;;;;;;15.87;8.00;;;24.30;1.00;;;;;;6284671;28;20713;-52
2022/07/21 04:48:17;;;;;;;10.17;7.10;;;24.30;1.00;;;;;;6267306;28;20264;-53
2022/07/21 04:51:19;;;;;;;14.43;8.13;;;24.30;1.00;;;;;;6268892;28;20253;-52
2022/07/21 04:54:22;;;;;;;13.33;8.07;;;24.30;1.00;;;;;;6282647;28;20376;-51
2022/07/21 04:57:27;;;;;;;11.17;7.77;;;24.40;1.00;;;;;;6276507;28;20272;-53
2022/07/21 05:00:29;;;;;;;10.63;8.67;;;24.40;1.00;;;;;;6277570;28;20428;-49
2022/07/21 05:03:32;;;;;;;10.27;8.43;;;24.40;1.00;;;;;;6282167;28;20262;-52
2022/07/21 05:06:35;;;;;;;14.27;12.17;;;24.40;1.00;;;;;;6276460;28;20310;-53
2022/07/21 05:09:38;;;;;;;14.73;13.23;;;24.30;1.00;;;;;;6283502;28;20237;-53
2022/07/21 05:12:42;;;;;;;16.10;14.27;;;24.30;1.00;;;;;;6277048;28;20259;-53
2022/07/21 05:15:45;;;;;;;20.43;16.20;;;24.20;1.00;;;;;;6275829;28;20236;-53
2022/07/21 05:18:48;;;;;;;16.30;14.50;;;24.20;1.00;;;;;;6284938;28;20359;-53
2022/07/21 05:21:52;;;;;;;16.80;15.13;;;24.20;1.00;;;;;;6286388;28;20236;-53
2022/07/21 05:24:55;;;;;;;16.13;14.57;;;24.20;1.00;;;;;;6289373;28;20716;-59
2022/07/21 05:27:59;;;;;;;16.70;15.00;;;24.20;1.00;;;;;;6284722;28;20651;-51
2022/07/21 05:31:02;;;;;;;20.23;16.03;;;24.30;1.00;;;;;;6277243;28;20290;-52
2022/07/21 05:34:05;;;;;;;18.07;16.17;;;24.40;1.00;;;;;;6291945;28;20651;-52
2022/07/21 05:37:08;;;;;;;22.50;18.60;;;24.50;1.00;;;;;;6283339;28;20263;-52
2022/07/21 05:40:11;;;;;;;21.20;18.93;;;24.70;1.00;;;;;;6288829;28;20426;-52
2022/07/21 05:43:16;;;;;;;22.00;19.63;;;24.80;1.00;;;;;;6282872;28;20233;-51
2022/07/21 05:46:18;;;;;;;21.57;19.40;;;24.90;1.00;;;;;;6280775;28;20306;-51
2022/07/21 05:49:21;;;;;;;24.47;21.57;;;25.00;1.00;;;;;;6277693;28;20241;-52
2022/07/21 05:52:24;;;;;;;21.27;19.13;;;24.90;1.00;;;;;;6288067;28;20241;-52
2022/07/21 05:55:27;;;;;;;21.63;19.63;;;24.90;1.00;;;;;;6279902;28;20251;-51
2022/07/21 05:58:34;;;;;;;22.17;19.77;;;25.00;1.00;;;;;;6283812;28;20624;-54
2022/07/21 06:01:37;;;;;;;22.20;19.73;;;24.90;1.00;;;;;;6288514;28;20291;-51
2022/07/21 06:04:39;;;;;;;25.20;20.07;;;25.00;1.00;;;;;;6279962;28;20226;-52
2022/07/21 06:07:43;;;;;;;20.00;17.90;;;25.10;1.00;;;;;;6282451;28;20658;-52
2022/07/21 06:10:46;;;;;;;21.27;18.93;;;25.00;1.00;;;;;;6291786;28;20316;-51
2022/07/21 06:13:50;;;;;;;21.97;18.63;;;25.10;1.00;;;;;;6283078;28;20237;-52
2022/07/21 06:16:54;;;;;;;21.37;19.23;;;25.00;1.00;;;;;;6284495;28;20279;-52
2022/07/21 06:19:57;;;;;;;22.87;18.67;;;25.10;1.00;;;;;;6284149;28;20532;-52
2022/07/21 06:23:00;;;;;;;21.63;19.43;;;25.40;1.00;;;;;;6282136;28;20720;-53
2022/07/21 06:26:03;;;;;;;21.50;18.97;;;25.50;1.00;;;;;;6286101;28;20644;-53
2022/07/21 06:29:07;;;;;;;20.40;18.30;;;25.90;1.00;;;;;;6286828;28;20344;-52
2022/07/21 06:32:10;;;;;;;20.10;18.30;;;25.90;1.00;;;;;;6254322;28;20580;-51
2022/07/21 06:35:20;;;;;;;22.40;19.37;;;25.90;1.00;;;;;;6275490;28;20240;-53
2022/07/21 06:38:23;;;;;;;20.33;18.27;;;25.80;1.00;;;;;;6281388;28;20583;-53
2022/07/21 06:41:26;;;;;;;22.40;19.50;;;25.80;1.00;;;;;;6281554;28;20817;-52
2022/07/21 06:44:31;;;;;;;24.03;18.63;;;25.70;1.00;;;;;;6288763;28;20652;-56
2022/07/21 06:47:34;;;;;;;21.23;19.23;;;25.80;1.00;;;;;;6282063;28;20244;-53
2022/07/21 06:50:37;;;;;;;21.43;18.67;;;26.00;1.00;;;;;;6283657;28;20351;-53
2022/07/21 06:53:42;;;;;;;20.00;17.93;;;26.10;1.00;;;;;;6290600;28;20241;-52
2022/07/21 06:56:45;;;;;;;20.83;18.73;;;26.40;1.00;;;;;;6283150;28;20295;-52
2022/07/21 06:59:49;;;;;;;19.43;17.37;;;26.70;1.00;;;;;;6280879;28;20896;-52
2022/07/21 07:02:52;;;;;;;20.60;18.53;;;27.10;1.00;;;;;;6283291;28;21799;-53
2022/07/21 07:05:55;;;;;;;18.93;17.23;;;26.50;1.00;;;;;;6279518;28;20226;-51
2022/07/21 07:08:58;;;;;;;19.70;17.77;;;26.30;1.00;;;;;;6279306;28;20692;-52
2022/07/21 07:12:03;;;;;;;18.93;17.40;;;26.30;1.00;;;;;;6278559;28;20389;-52
2022/07/21 07:15:28;;;;;;;19.20;17.60;;;26.60;1.00;;;;;;6276137;28;20475;-51
2022/07/21 07:18:31;;;;;;;20.90;17.57;;;26.70;1.00;;;;;;6272048;28;20267;-51
2022/07/21 07:21:33;;;;;;;18.37;16.53;;;26.70;1.00;;;;;;6283943;28;20742;-55
2022/07/21 07:24:36;;;;;;;19.57;17.47;;;26.80;1.00;;;;;;6285483;28;20333;-53
2022/07/21 07:27:39;;;;;;;23.40;17.33;;;26.40;1.00;;;;;;6285332;28;20309;-52
2022/07/21 07:30:43;;;;;;;17.53;15.83;;;26.30;1.00;;;;;;6283112;28;20241;-52
2022/07/21 07:33:46;;;;;;;18.57;16.67;;;26.10;1.00;;;;;;6271302;28;20249;-53
2022/07/21 07:36:50;;;;;;;18.57;16.73;;;26.20;1.00;;;;;;6282205;28;20450;-52
2022/07/21 07:39:52;;;;;;;20.27;16.50;;;26.30;1.00;;;;;;6280195;28;20734;-52
2022/07/21 07:42:56;;;;;;;17.40;15.60;;;26.20;1.00;;;;;;6276091;28;20271;-52
2022/07/21 07:46:01;;;;;;;17.33;15.63;;;26.20;1.00;;;;;;6280899;28;20438;-53
2022/07/21 07:49:05;;;;;;;18.27;16.47;;;26.50;1.00;;;;;;6278137;28;20388;-53
2022/07/21 07:52:20;;;;;;;17.63;15.33;;;26.60;1.00;;;;;;6284359;28;20283;-52
2022/07/21 07:55:23;;;;;;;16.30;14.83;;;26.70;1.00;;;;;;6274370;28;20239;-52
2022/07/21 07:58:26;;;;;;;16.97;15.27;;;26.90;1.00;;;;;;6277392;28;20810;-52
2022/07/21 08:01:30;;;;;;;16.60;15.10;;;27.10;1.00;;;;;;6278791;28;20331;-52
2022/07/21 08:04:35;;;;;;;15.60;14.10;;;27.00;1.00;;;;;;6289195;28;20244;-52
2022/07/21 08:07:39;;;;;;;15.63;14.13;;;27.00;1.00;;;;;;6282151;28;20769;-53
2022/07/21 08:10:43;;;;;;;16.33;14.80;;;26.90;1.00;;;;;;6279045;28;20395;-52
2022/07/21 08:13:46;;;;;;;16.07;14.43;;;26.90;1.00;;;;;;6274827;28;20233;-51
2022/07/21 08:16:51;;;;;;;15.23;13.63;;;26.90;1.00;;;;;;6282121;28;20379;-53
2022/07/21 08:19:54;;;;;;;17.67;13.47;;;27.00;1.00;;;;;;6284236;28;20720;-52
2022/07/21 08:22:57;;;;;;;15.43;14.03;;;27.10;1.00;;;;;;6290442;28;20469;-53
2022/07/21 08:26:00;;;;;;;15.53;14.13;;;27.20;1.00;;;;;;6283696;28;20241;-52
2022/07/21 08:29:04;;;;;;;16.30;14.80;;;27.10;1.00;;;;;;6277077;28;20414;-53
2022/07/21 08:32:09;;;;;;;15.27;13.90;;;27.10;1.00;;;;;;6278525;28;20304;-51
2022/07/21 08:35:12;;;;;;;15.77;14.20;;;27.40;1.00;;;;;;6277775;28;20226;-52
2022/07/21 08:38:16;;;;;;;14.17;12.70;;;27.60;1.00;;;;;;6282466;28;20706;-52
2022/07/21 08:41:19;;;;;;;14.97;13.67;;;27.80;1.00;;;;;;6280075;28;20606;-53
2022/07/21 08:44:23;;;;;;;14.63;13.27;;;28.10;1.00;;;;;;6276864;28;20388;-52
2022/07/21 08:47:28;;;;;;;15.93;14.23;;;28.30;1.00;;;;;;6280219;28;20249;-58
2022/07/21 08:50:33;;;;;;;14.23;13.03;;;28.30;1.00;;;;;;6287290;28;20365;-52
2022/07/21 08:53:36;;;;;;;15.37;13.77;;;28.40;1.00;;;;;;6284687;28;20237;-52
2022/07/21 08:56:39;;;;;;;14.03;12.93;;;28.40;1.00;;;;;;6280060;28;20243;-52
2022/07/21 08:59:42;;;;;;;19.17;13.77;;;28.50;1.00;;;;;;6275582;28;20271;-52
2022/07/21 09:03:09;;;;;;;14.73;13.33;;;28.50;1.00;;;;;;6289451;28;20395;-52
2022/07/21 09:06:15;;;;;;;14.67;13.27;;;28.50;1.00;;;;;;6284048;28;20822;-53
2022/07/21 09:09:20;;;;;;;14.00;12.60;;;28.70;1.00;;;;;;6280874;28;20402;-52
2022/07/21 09:12:23;;;;;;;13.02;11.88;;;29.00;1.00;;;;;;6285148;28;20359;-52
2022/07/21 09:15:28;;;;;;;13.23;12.07;;;29.20;1.00;;;;;;6265719;28;20552;-54
2022/07/21 09:18:32;;;;;;;13.30;12.18;;;29.50;1.00;;;;;;6276177;28;20237;-52
2022/07/21 09:21:36;;;;;;;12.07;10.63;;;29.70;1.00;;;;;;6286676;28;20853;-52
2022/07/21 09:24:40;;;;;;;12.52;11.32;;;29.90;1.00;;;;;;6279927;28;20371;-53
2022/07/21 09:27:43;;;;;;;11.90;10.93;;;29.80;1.00;;;;;;6286839;28;20380;-53
2022/07/21 09:30:56;;;;;;;11.25;10.30;;;29.50;1.00;;;;;;6282490;28;20302;-52
2022/07/21 09:34:00;;;;;;;13.77;10.73;;;29.40;1.00;;;;;;6277410;28;20228;-53
2022/07/21 09:37:07;;;;;;;11.93;10.57;;;29.50;1.00;;;;;;6279668;28;20726;-51
2022/07/21 09:40:12;;;;;;;10.75;9.85;;;29.40;1.00;;;;;;6278888;28;20290;-52
2022/07/21 09:43:30;;;;;;;10.45;9.60;;;29.50;1.00;;;;;;6277232;28;20233;-52
2022/07/21 09:46:33;;;;;;;11.63;10.60;;;29.80;1.00;;;;;;6278163;28;20368;-53
2022/07/21 09:49:39;;;;;;;11.00;9.95;;;29.90;1.00;;;;;;6271640;28;20246;-52
2022/07/21 09:53:02;;;;;;;10.90;10.10;;;29.70;1.00;;;;;;6285565;28;20234;-52
2022/07/21 09:56:06;;;;;;;10.82;9.82;;;29.90;1.00;;;;;;6283069;28;20359;-52
2022/07/21 09:59:11;;;;;;;14.32;9.05;;;30.30;1.00;;;;;;6280355;28;20328;-50
2022/07/21 10:02:17;;;;;;;9.02;8.20;;;30.50;1.00;;;;;;6280580;28;20301;-52
2022/07/21 10:05:22;;;;;;;7.93;7.18;;;30.40;1.00;;;;;;6285205;28;20330;-51
2022/07/21 10:08:35;;;;;;;8.75;8.25;;;30.40;1.00;;;;;;6278112;28;20520;-53
2022/07/21 10:11:41;;;;;;;8.43;7.72;;;30.50;1.00;;;;;;6283458;28;20496;-52
2022/07/21 10:14:46;;;;;;;8.55;7.82;;;30.50;1.00;;;;;;6276161;28;20233;-53
2022/07/21 10:17:51;;;;;;;11.07;8.82;;;30.70;1.00;;;;;;6281402;28;20226;-51
2022/07/21 10:21:02;;;;;;;11.25;8.77;;;30.60;1.00;;;;;;6278042;28;20722;-51
2022/07/21 10:24:06;;;;;;;9.18;8.48;;;30.70;1.00;;;;;;6278951;28;20257;-51
2022/07/21 10:27:11;;;;;;;8.50;7.68;;;30.60;1.00;;;;;;6280715;28;20306;-51
2022/07/21 10:30:15;;;;;;;8.48;7.78;;;30.60;1.00;;;;;;6272660;28;20306;-52
2022/07/21 10:33:20;;;;;;;8.68;7.97;;;30.70;1.00;;;;;;6283312;28;20248;-51
2022/07/21 10:36:44;;;;;;;9.13;8.43;;;30.60;1.00;;;;;;6284915;28;20241;-53
2022/07/21 10:39:46;;;;;;;7.78;7.30;;;30.50;1.00;;;;;;6283318;28;20726;-52
2022/07/21 10:43:34;;;;;;;11.10;8.00;;;30.30;1.00;;;;;;6284068;28;20282;-51
2022/07/21 10:46:40;;;;;;;7.85;7.45;;;30.20;1.00;;;;;;6283238;28;20248;-52
2022/07/21 10:49:49;;;;;;;8.63;7.97;;;30.00;1.00;;;;;;6281616;28;20241;-53
2022/07/21 10:52:59;;;;;;;9.45;7.13;;;29.70;1.00;;;;;;6288930;28;20227;-53
2022/07/21 10:56:02;;;;;;;9.25;8.15;;;29.50;1.00;;;;;;6283757;28;20229;-53
2022/07/21 10:59:05;;;;;;;8.93;6.95;;;29.40;1.00;;;;;;6284615;28;20338;-53
2022/07/21 11:02:27;;;;;;;8.45;7.82;;;29.30;1.00;;;;;;6290945;28;20298;-52
2022/07/21 11:05:32;;;;;;;8.20;7.40;;;29.50;1.00;;;;;;6278469;28;20612;-53
2022/07/21 11:08:37;;;;;;;7.88;7.28;;;29.60;1.00;;;;;;6281770;28;20245;-51
2022/07/21 11:11:58;;;;;;;10.02;9.07;;;29.40;1.00;;;;;;6279089;28;20337;-52
2022/07/21 11:15:01;;;;;;;8.73;7.97;;;29.40;1.00;;;;;;6282631;28;20704;-52
2022/07/21 11:18:04;;;;;;;7.55;7.07;;;29.40;1.00;;;;;;6278364;28;20317;-54
2022/07/21 11:21:13;;;;;;;6.85;6.35;;;29.50;1.00;;;;;;6282566;28;20236;-53
2022/07/21 11:24:20;;;;;;;7.32;6.82;;;29.80;1.00;;;;;;6281806;28;20619;-53
2022/07/21 11:27:26;;;;;;;6.88;6.47;;;29.80;1.00;;;;;;6281093;28;20293;-53
2022/07/21 11:30:29;;;;;;;6.82;6.28;;;29.80;1.00;;;;;;6280356;28;20667;-52
2022/07/21 11:33:32;;;;;;;7.45;6.80;;;29.90;1.00;;;;;;6286886;28;20367;-55
2022/07/21 11:36:35;;;;;;;7.10;6.68;;;30.20;1.00;;;;;;6284843;28;20475;-53
2022/07/21 11:39:39;;;;;;;7.00;6.45;;;29.90;1.00;;;;;;6280434;28;20243;-53
2022/07/21 11:42:44;;;;;;;7.07;6.57;;;29.90;1.00;;;;;;6285775;28;20473;-52
2022/07/21 11:45:53;;;;;;;7.32;6.85;;;29.80;1.00;;;;;;6273759;28;20233;-52
2022/07/21 11:49:03;;;;;;;7.72;7.03;;;29.80;1.00;;;;;;6280573;28;20238;-53
2022/07/21 11:52:09;;;;;;;6.60;6.28;;;29.60;1.00;;;;;;6276011;28;20230;-54
2022/07/21 11:55:13;;;;;;;8.20;7.38;;;29.50;1.00;;;;;;6278602;28;20371;-52
2022/07/21 11:58:16;;;;;;;8.43;7.72;;;29.50;1.00;;;;;;6281581;28;20386;-52
2022/07/21 12:01:20;;;;;;;7.45;6.93;;;29.50;1.00;;;;;;6279238;28;20311;-51
2022/07/21 12:04:28;;;;;;;7.82;7.32;;;29.40;1.00;;;;;;6290119;28;20749;-53
2022/07/21 12:07:35;;;;;;;8.85;7.82;;;29.40;1.00;;;;;;6287799;28;20611;-52
2022/07/21 12:10:39;;;;;;;7.28;6.78;;;29.30;1.00;;;;;;6270313;28;20320;-53
2022/07/21 12:13:55;;;;;;;7.80;7.10;;;29.20;1.00;;;;;;6276142;28;20522;-53
2022/07/21 12:16:58;;;;;;;7.30;6.83;;;29.20;1.00;;;;;;6285102;28;20680;-53
2022/07/21 12:20:01;;;;;;;8.77;7.93;;;29.20;1.00;;;;;;6267355;28;20239;-53
2022/07/21 12:23:20;;;;;;;8.40;7.60;;;29.10;1.00;;;;;;6272591;28;20265;-53
2022/07/21 12:26:25;;;;;;;8.82;8.13;;;28.90;1.00;;;;;;6281501;28;20326;-53
2022/07/21 12:29:29;;;;;;;7.90;7.10;;;28.70;1.00;;;;;;6286686;28;20241;-52
2022/07/21 12:32:44;;;;;;;8.00;7.43;;;28.40;1.00;;;;;;6293771;28;20252;-47
2022/07/21 12:35:59;;;;;;;9.23;7.50;;;28.10;1.00;;;;;;6280289;28;20222;-52
2022/07/21 12:42:38;;;;;;;9.60;7.23;;;28.00;1.00;;;;;;6280402;28;20759;-52
2022/07/21 12:45:53;;;;;;;8.07;7.47;;;27.90;1.00;;;;;;6246250;28;20316;-51
2022/07/21 12:49:04;;;;;;;8.97;7.53;;;27.80;1.00;;;;;;6275016;28;20521;-52
2022/07/21 12:52:15;;;;;;;8.40;7.80;;;27.70;1.00;;;;;;6285002;28;20827;-53
2022/07/21 12:55:17;;;;;;;8.43;7.80;;;27.70;1.00;;;;;;6283720;28;20234;-51
2022/07/21 12:58:22;;;;;;;8.30;7.50;;;27.80;1.00;;;;;;6279956;28;20789;-48
2022/07/21 13:01:27;;;;;;;8.73;8.03;;;27.80;1.00;;;;;;6284706;28;20257;-50
2022/07/21 13:04:30;;;;;;;10.10;8.70;;;27.80;1.00;;;;;;6287880;28;20239;-52
2022/07/21 13:07:33;;;;;;;8.70;7.87;;;27.60;1.00;;;;;;6278806;28;20237;-51
2022/07/21 13:10:35;;;;;;;7.27;6.80;;;27.60;1.00;;;;;;6286582;28;20252;-52
2022/07/21 13:13:40;;;;;;;7.27;6.73;;;27.60;1.00;;;;;;6272895;28;20658;-52
2022/07/21 13:16:43;;;;;;;8.37;7.87;;;27.40;1.00;;;;;;6275324;28;20310;-52
2022/07/21 13:19:46;;;;;;;7.37;6.90;;;27.30;1.00;;;;;;6279250;28;20237;-51
2022/07/21 13:22:49;;;;;;;7.83;7.27;;;26.90;1.00;;;;;;6279778;28;20229;-52
2022/07/21 13:25:52;;;;;;;7.93;7.43;;;26.70;1.00;;;;;;6273622;28;20221;-53
2022/07/21 13:29:11;;;;;;;7.47;6.80;;;26.50;1.00;;;;;;6255616;28;20245;-53
2022/07/21 13:32:14;;;;;;;7.90;7.00;;;26.40;1.00;;;;;;6281071;28;20511;-54
2022/07/21 13:35:17;;;;;;;8.73;6.70;;;26.20;1.00;;;;;;6273286;28;20699;-52
2022/07/21 13:38:29;;;;;;;6.97;6.47;;;25.90;1.00;;;;;;6284379;28;20491;-55
2022/07/21 13:41:32;;;;;;;7.73;7.07;;;25.80;1.00;;;;;;6283220;28;20331;-56
2022/07/21 13:44:56;;;;;;;7.53;7.10;;;25.50;1.00;;;;;;6281870;28;20294;-54
2022/07/21 13:47:59;;;;;;;8.03;7.17;;;25.10;1.00;;;;;;6287775;28;20775;-54
2022/07/21 13:51:03;;;;;;;7.97;7.27;;;24.90;1.00;;;;;;6279025;28;20456;-55
2022/07/21 13:54:06;;;;;;;7.50;7.00;;;24.80;1.00;;;;;;6290685;28;20312;-54
2022/07/21 13:57:09;;;;;;;7.37;6.90;;;24.80;1.00;;;;;;6285888;28;20504;-54
2022/07/21 14:00:14;;;;;;;7.70;7.00;;;24.90;1.00;;;;;;6280308;28;20688;-53
2022/07/21 14:03:17;;;;;;;8.10;7.50;;;24.90;1.00;;;;;;6290778;28;20316;-52
2022/07/21 14:06:20;;;;;;;7.90;7.30;;;24.70;1.00;;;;;;6286435;28;20238;-52
2022/07/21 14:09:23;;;;;;;6.87;6.37;;;24.70;1.00;;;;;;6284904;28;20236;-53
2022/07/21 14:12:26;;;;;;;7.60;7.07;;;24.70;1.00;;;;;;6291640;28;20346;-53
2022/07/21 14:15:30;;;;;;;7.57;7.07;;;24.70;1.00;;;;;;6291786;28;20750;-52
2022/07/21 14:18:33;;;;;;;6.77;6.47;;;24.90;1.00;;;;;;6291915;28;20390;-53
2022/07/21 14:21:36;;;;;;;7.00;6.60;;;25.00;1.00;;;;;;6288232;28;20887;-53
2022/07/21 14:28:00;;;;;;;6.27;5.97;;;25.10;1.00;;;;;;6292467;28;20236;-52
2022/07/21 14:31:05;;;;;;;7.67;7.00;;;25.10;1.00;;;;;;6283435;28;20329;-53
2022/07/21 14:34:07;;;;;;;8.10;7.70;;;25.10;1.00;;;;;;6284265;28;20648;-52
2022/07/21 14:37:10;;;;;;;7.93;7.33;;;25.10;1.00;;;;;;6285933;28;20939;-51
2022/07/21 14:40:14;;;;;;;7.30;6.90;;;25.30;1.00;;;;;;6283817;28;20236;-51
2022/07/21 14:43:17;;;;;;;7.60;7.00;;;25.50;1.00;;;;;;6285450;28;20263;-51
2022/07/21 14:46:21;;;;;;;7.63;7.07;;;25.80;1.00;;;;;;6283912;28;20237;-50
2022/07/21 14:49:24;;;;;;;8.10;7.60;;;25.90;1.00;;;;;;6292358;28;20356;-54
2022/07/21 14:52:27;;;;;;;7.67;7.13;;;26.10;1.00;;;;;;6284309;28;20329;-51
2022/07/21 14:55:30;;;;;;;7.00;6.50;;;26.10;1.00;;;;;;6289409;28;20233;-52
2022/07/21 14:58:34;;;;;;;7.10;6.70;;;25.90;1.00;;;;;;6278340;28;20385;-51
2022/07/21 15:01:38;;;;;;;7.23;6.80;;;26.20;1.00;;;;;;6280650;28;20300;-52
2022/07/21 15:04:41;;;;;;;7.53;7.00;;;26.20;1.00;;;;;;6288183;28;20237;-51
2022/07/21 15:07:44;;;;;;;7.13;6.57;;;26.50;1.00;;;;;;6280962;28;20312;-53
2022/07/21 15:10:48;;;;;;;8.13;7.63;;;26.70;1.00;;;;;;6287116;28;20463;-50
2022/07/21 15:13:52;;;;;;;7.53;7.03;;;26.70;1.00;;;;;;6279439;28;20273;-51
2022/07/21 15:16:56;;;;;;;7.60;7.20;;;26.60;1.00;;;;;;6279909;28;20614;-52
2022/07/21 15:20:00;;;;;;;7.33;6.93;;;26.20;1.00;;;;;;6283111;28;20283;-51
2022/07/21 15:23:03;;;;;;;7.27;6.70;;;26.10;1.00;;;;;;6282466;28;20237;-52
2022/07/21 15:26:06;;;;;;;6.73;6.43;;;25.90;1.00;;;;;;6282639;28;20257;-52
2022/07/21 15:29:09;;;;;;;7.73;7.33;;;25.80;1.00;;;;;;6274197;28;20638;-52
2022/07/21 15:32:13;;;;;;;7.67;7.17;;;25.70;1.00;;;;;;6285608;28;20231;-52
2022/07/21 15:35:16;;;;;;;6.53;6.27;;;25.70;1.00;;;;;;6282436;28;20229;-50
2022/07/21 15:38:20;;;;;;;8.77;7.93;;;25.70;1.00;;;;;;6282402;28;20444;-52
2022/07/21 15:41:23;;;;;;;7.87;7.27;;;25.90;1.00;;;;;;6281698;28;20335;-51
2022/07/21 15:44:46;;;;;;;7.50;7.10;;;26.10;1.00;;;;;;6266827;28;20601;-52
2022/07/21 15:47:50;;;;;;;7.63;7.23;;;26.40;1.00;;;;;;6284212;28;20233;-52
2022/07/21 15:50:53;;;;;;;7.70;7.27;;;26.60;1.00;;;;;;6283122;28;20253;-54
2022/07/21 15:53:56;;;;;;;8.10;7.60;;;26.60;1.00;;;;;;6285002;28;20344;-51
2022/07/21 15:57:00;;;;;;;8.50;8.00;;;26.50;1.00;;;;;;6270001;28;20229;-51
2022/07/21 16:00:04;;;;;;;8.43;7.87;;;26.50;1.00;;;;;;6283235;28;20500;-50
2022/07/21 16:03:08;;;;;;;8.27;7.70;;;26.50;1.00;;;;;;6280463;28;20313;-50
2022/07/21 16:06:11;;;;;;;8.40;8.00;;;26.60;1.00;;;;;;6288982;28;20233;-51
2022/07/21 16:09:14;;;;;;;9.37;8.67;;;26.60;1.00;;;;;;6278558;28;20852;-50
2022/07/21 16:12:17;;;;;;;9.07;8.27;;;26.40;1.00;;;;;;6284849;28;20330;-52
2022/07/21 16:15:21;;;;;;;8.53;7.93;;;26.40;1.00;;;;;;6281748;28;20599;-52